createdAt,value
2022-10-03T00:01:21.358Z,93058.75
2022-10-03T00:03:11.775Z,93057.94
2022-10-03T00:04:45.562Z,93059.34
2022-10-03T00:06:33.481Z,93053.78
2022-10-03T00:08:05.395Z,93050.13
2022-10-03T00:09:56.657Z,93046.97
2022-10-03T00:11:32.728Z,93043.78
2022-10-03T00:13:16.523Z,93034.91
2022-10-03T00:14:58.880Z,93041.38
2022-10-03T00:16:30.453Z,93038.88
2022-10-03T00:18:08.510Z,93039.06
2022-10-03T00:19:42.356Z,93034.28
2022-10-03T00:21:14.582Z,93030.94
2022-10-03T00:23:07.451Z,93029.97
2022-10-03T00:24:41.953Z,93028.69
2022-10-03T00:26:32.011Z,93021.41
2022-10-03T00:28:06.674Z,93026.00
2022-10-03T00:29:48.231Z,93029.97
2022-10-03T00:31:25.297Z,93025.81
2022-10-03T00:33:12.212Z,93032.47
2022-10-03T00:34:43.940Z,93019.50
2022-10-03T00:36:20.278Z,93023.91
2022-10-03T00:38:04.024Z,93017.56
2022-10-03T00:39:43.633Z,93009.81
2022-10-03T00:41:31.043Z,93010.72
2022-10-03T00:43:14.129Z,93009.25
2022-10-03T00:44:52.534Z,93003.38
2022-10-03T00:46:30.237Z,93003.19
2022-10-03T00:48:25.260Z,93005.88
2022-10-03T00:50:09.192Z,93006.03
2022-10-03T00:52:02.627Z,93001.38
2022-10-03T00:53:38.067Z,93006.09
2022-10-03T00:55:18.793Z,92999.72
2022-10-03T00:56:58.458Z,92997.94
2022-10-03T00:58:34.429Z,92993.16
2022-10-03T01:00:16.860Z,92995.34
2022-10-03T01:01:54.845Z,92992.47
2022-10-03T01:03:35.791Z,92985.03
2022-10-03T01:12:55.926Z,92990.56
2022-10-03T01:14:46.456Z,92992.19
2022-10-03T01:16:38.075Z,92986.25
2022-10-03T01:18:13.828Z,92986.50
2022-10-03T01:20:08.073Z,92984.66
2022-10-03T01:21:46.740Z,92987.88
2022-10-03T01:23:27.104Z,92986.81
2022-10-03T01:25:04.743Z,92985.44
2022-10-03T01:27:05.213Z,92986.59
2022-10-03T01:29:12.630Z,92982.03
2022-10-03T01:30:50.026Z,92982.69
2022-10-03T01:32:34.651Z,92975.84
2022-10-03T01:34:14.234Z,92976.31
2022-10-03T01:35:53.907Z,92974.88
2022-10-03T01:37:43.684Z,92972.31
2022-10-03T01:39:45.086Z,92968.66
2022-10-03T01:41:36.064Z,92966.47
2022-10-03T01:43:13.340Z,92959.84
2022-10-03T01:45:01.375Z,92962.69
2022-10-03T01:46:54.059Z,92965.25
2022-10-03T01:48:34.895Z,92961.44
2022-10-03T01:50:28.921Z,92962.88
2022-10-03T01:52:00.754Z,92963.47
2022-10-03T01:53:43.564Z,92958.41
2022-10-03T01:55:36.841Z,92957.47
2022-10-03T01:57:23.091Z,92955.41
2022-10-03T02:01:22.084Z,92961.88
2022-10-03T02:02:56.626Z,92964.59
2022-10-03T02:04:34.503Z,92958.09
2022-10-03T02:06:06.972Z,92961.59
2022-10-03T02:07:44.487Z,92955.41
2022-10-03T02:09:27.947Z,92956.50
2022-10-03T02:11:09.025Z,92954.91
2022-10-03T02:12:41.472Z,92966.03
2022-10-03T02:14:13.031Z,92961.88
2022-10-03T02:15:44.783Z,92956.81
2022-10-03T02:17:30.789Z,92960.28
2022-10-03T02:19:14.912Z,92954.91
2022-10-03T02:20:46.844Z,92958.09
2022-10-03T02:22:36.663Z,92949.53
2022-10-03T02:24:20.341Z,92954.47
2022-10-03T02:25:54.636Z,92959.84
2022-10-03T02:27:34.451Z,92952.88
2022-10-03T02:29:21.121Z,92957.75
2022-10-03T02:31:12.074Z,92956.97
2022-10-03T02:33:19.136Z,92959.34
2022-10-03T02:35:02.799Z,92953.97
2022-10-03T02:36:43.310Z,92951.59
2022-10-03T02:38:20.701Z,92945.41
2022-10-03T02:40:01.293Z,92946.19
2022-10-03T02:41:36.122Z,92948.28
2022-10-03T02:43:26.160Z,92944.47
2022-10-03T02:45:03.868Z,92943.34
2022-10-03T02:46:49.077Z,92939.09
2022-10-03T02:48:39.068Z,92945.59
2022-10-03T02:50:29.319Z,92932.44
2022-10-03T02:52:19.142Z,92932.75
2022-10-03T02:53:56.728Z,92927.03
2022-10-03T02:55:31.436Z,92927.53
2022-10-03T02:57:03.209Z,92932.75
2022-10-03T02:58:46.743Z,92924.38
2022-10-03T03:00:18.493Z,92922.31
2022-10-03T03:01:53.124Z,92927.38
2022-10-03T03:03:36.949Z,92922.47
2022-10-03T03:05:28.928Z,92921.88
2022-10-03T03:07:20.017Z,92924.25
2022-10-03T03:08:58.407Z,92924.72
2022-10-03T03:10:48.812Z,92918.38
2022-10-03T03:12:20.471Z,92916.00
2022-10-03T03:14:10.716Z,92918.56
2022-10-03T03:15:42.924Z,92916.78
2022-10-03T03:17:15.237Z,92912.81
2022-10-03T03:18:49.696Z,92922.78
2022-10-03T03:20:33.577Z,92915.38
2022-10-03T03:22:43.745Z,92916.59
2022-10-03T03:24:18.252Z,92920.69
2022-10-03T03:25:57.472Z,92914.97
2022-10-03T03:27:35.238Z,92916.22
2022-10-03T03:29:22.102Z,92918.56
2022-10-03T03:31:00.468Z,92922.03
2022-10-03T03:32:34.608Z,92925.94
2022-10-03T03:34:20.296Z,92924.19
2022-10-03T03:35:51.984Z,92929.56
2022-10-03T03:37:32.845Z,92928.78
2022-10-03T03:39:25.644Z,92928.16
2022-10-03T03:40:57.212Z,92936.84
2022-10-03T03:42:51.652Z,92937.97
2022-10-03T03:44:41.423Z,92923.81
2022-10-03T03:46:31.148Z,92925.56
2022-10-03T03:48:22.793Z,92923.66
2022-10-03T03:50:00.739Z,92923.78
2022-10-03T03:51:33.706Z,92926.31
2022-10-03T03:53:14.448Z,92929.63
2022-10-03T03:54:52.019Z,92934.31
2022-10-03T03:56:30.087Z,92932.56
2022-10-03T03:58:17.890Z,92927.00
2022-10-03T03:59:50.240Z,92928.22
2022-10-03T04:01:58.158Z,92928.34
2022-10-03T04:03:44.131Z,92927.66
2022-10-03T04:05:24.317Z,92927.78
2022-10-03T04:07:21.637Z,92937.25
2022-10-03T04:09:03.028Z,92923.31
2022-10-03T04:10:34.601Z,92927.09
2022-10-03T04:12:09.323Z,92926.31
2022-10-03T04:13:47.991Z,92932.78
2022-10-03T04:15:30.910Z,92928.69
2022-10-03T04:17:26.499Z,92928.91
2022-10-03T04:19:04.548Z,92925.91
2022-10-03T04:20:36.158Z,92934.56
2022-10-03T04:22:09.625Z,92932.69
2022-10-03T04:23:58.445Z,92931.28
2022-10-03T04:25:46.845Z,92930.19
2022-10-03T04:27:24.404Z,92928.91
2022-10-03T04:29:06.229Z,92920.03
2022-10-03T04:30:46.284Z,92928.22
2022-10-03T04:32:20.664Z,92924.41
2022-10-03T04:33:56.609Z,92926.50
2022-10-03T04:35:40.511Z,92921.94
2022-10-03T04:37:15.803Z,92921.44
2022-10-03T04:38:55.113Z,92924.41
2022-10-03T04:40:42.860Z,92923.94
2022-10-03T04:42:26.913Z,92923.94
2022-10-03T04:44:32.089Z,92925.53
2022-10-03T04:46:16.265Z,92923.31
2022-10-03T04:48:00.038Z,92923.31
2022-10-03T04:49:36.007Z,92919.53
2022-10-03T04:51:13.752Z,92926.50
2022-10-03T04:52:59.267Z,92927.00
2022-10-03T04:54:43.831Z,92924.47
2022-10-03T04:56:22.314Z,92922.88
2022-10-03T04:58:04.723Z,92935.56
2022-10-03T04:59:39.341Z,92925.56
2022-10-03T05:01:26.793Z,92923.38
2022-10-03T05:02:58.919Z,92933.22
2022-10-03T05:04:33.900Z,92926.06
2022-10-03T05:06:28.774Z,92933.09
2022-10-03T05:08:12.963Z,92934.63
2022-10-03T05:09:50.482Z,92934.31
2022-10-03T05:11:23.286Z,92939.09
2022-10-03T05:12:57.755Z,92937.84
2022-10-03T05:14:35.659Z,92944.03
2022-10-03T05:16:10.627Z,92935.06
2022-10-03T05:17:47.420Z,92941.69
2022-10-03T05:19:23.486Z,92946.16
2022-10-03T05:21:07.396Z,92940.19
2022-10-03T05:22:39.263Z,92936.69
2022-10-03T05:24:16.445Z,92939.38
2022-10-03T05:25:48.075Z,92935.91
2022-10-03T05:27:23.195Z,92942.56
2022-10-03T05:29:06.380Z,92933.22
2022-10-03T05:30:56.663Z,92935.91
2022-10-03T05:32:42.423Z,92925.16
2022-10-03T05:34:29.134Z,92931.63
2022-10-03T05:36:10.877Z,92925.47
2022-10-03T05:37:50.235Z,92922.97
2022-10-03T05:39:40.388Z,92921.25
2022-10-03T05:41:12.605Z,92930.31
2022-10-03T05:42:47.311Z,92929.22
2022-10-03T05:44:19.580Z,92918.94
2022-10-03T05:45:54.578Z,92929.06
2022-10-03T05:47:45.248Z,92926.75
2022-10-03T05:49:16.964Z,92931.53
2022-10-03T05:51:09.474Z,92929.78
2022-10-03T05:52:41.617Z,92929.97
2022-10-03T05:54:28.851Z,92924.91
2022-10-03T05:56:14.240Z,92930.56
2022-10-03T05:58:05.459Z,92930.75
2022-10-03T05:59:37.783Z,92928.06
2022-10-03T06:01:21.701Z,92930.16
2022-10-03T06:02:57.183Z,92929.22
2022-10-03T06:04:28.999Z,92920.53
2022-10-03T06:06:20.223Z,92930.38
2022-10-03T06:07:51.777Z,92925.03
2022-10-03T06:09:23.575Z,92914.09
2022-10-03T06:11:04.359Z,92916.00
2022-10-03T06:12:41.237Z,92917.28
2022-10-03T06:14:27.751Z,92919.19
2022-10-03T06:16:18.822Z,92920.00
2022-10-03T06:17:58.272Z,92924.44
2022-10-03T06:19:48.874Z,92925.84
2022-10-03T06:21:23.596Z,92928.84
2022-10-03T06:23:05.793Z,92927.56
2022-10-03T06:24:38.932Z,92935.00
2022-10-03T06:26:15.089Z,92935.16
2022-10-03T06:28:05.743Z,92945.28
2022-10-03T06:29:46.757Z,92945.78
2022-10-03T06:31:31.916Z,92935.81
2022-10-03T06:33:04.216Z,92946.13
2022-10-03T06:34:51.025Z,92947.28
2022-10-03T06:36:22.910Z,92944.75
2022-10-03T06:38:14.656Z,92940.03
2022-10-03T06:40:09.583Z,92949.69
2022-10-03T06:41:48.542Z,92951.59
2022-10-03T06:43:25.728Z,92952.88
2022-10-03T06:45:16.205Z,92956.50
2022-10-03T06:46:52.893Z,92955.72
2022-10-03T06:48:43.329Z,92959.50
2022-10-03T06:50:19.631Z,92962.84
2022-10-03T06:51:53.845Z,92958.19
2022-10-03T06:53:34.367Z,92966.59
2022-10-03T06:55:12.254Z,92960.44
2022-10-03T06:56:53.179Z,92962.31
2022-10-03T06:58:27.595Z,92959.63
2022-10-03T07:00:15.592Z,92963.28
2022-10-03T07:01:48.905Z,92960.28
2022-10-03T07:03:25.470Z,92955.88
2022-10-03T07:05:09.386Z,92952.28
2022-10-03T07:06:44.290Z,92957.84
2022-10-03T07:08:24.859Z,92961.84
2022-10-03T07:10:02.579Z,92961.69
2022-10-03T07:11:46.986Z,92962.38
2022-10-03T07:13:38.040Z,92962.19
2022-10-03T07:15:50.813Z,92965.56
2022-10-03T07:17:26.148Z,92960.47
2022-10-03T07:19:02.101Z,92964.59
2022-10-03T07:20:55.454Z,92971.25
2022-10-03T07:22:35.990Z,92968.59
2022-10-03T07:24:26.236Z,92967.31
2022-10-03T07:26:16.873Z,92966.19
2022-10-03T07:27:51.352Z,92966.50
2022-10-03T07:29:30.819Z,92969.06
2022-10-03T07:31:21.332Z,92968.88
2022-10-03T07:32:59.180Z,92970.34
2022-10-03T07:34:33.812Z,92980.81
2022-10-03T07:36:24.042Z,92969.50
2022-10-03T07:38:13.991Z,92975.38
2022-10-03T07:40:02.231Z,92967.91
2022-10-03T07:41:34.224Z,92965.84
2022-10-03T07:43:16.051Z,92965.22
2022-10-03T07:44:50.911Z,92965.34
2022-10-03T07:46:42.191Z,92976.31
2022-10-03T07:48:25.381Z,92975.22
2022-10-03T07:49:59.692Z,92978.38
2022-10-03T07:51:50.760Z,92976.16
2022-10-03T07:53:22.332Z,92982.97
2022-10-03T07:54:54.119Z,92978.84
2022-10-03T07:56:32.707Z,92982.66
2022-10-03T07:58:26.451Z,92990.44
2022-10-03T08:00:05.767Z,92997.91
2022-10-03T08:01:41.874Z,92999.66
2022-10-03T08:03:32.543Z,93012.03
2022-10-03T08:05:22.970Z,93021.09
2022-10-03T08:07:18.524Z,93036.16
2022-10-03T08:08:59.161Z,93024.59
2022-10-03T08:10:49.668Z,93036.16
2022-10-03T08:12:52.085Z,93041.38
2022-10-03T08:14:32.678Z,93038.06
2022-10-03T08:16:19.194Z,93044.75
2022-10-03T08:18:09.747Z,93040.13
2022-10-03T08:19:41.520Z,93046.66
2022-10-03T08:21:35.944Z,93046.97
2022-10-03T08:23:26.137Z,93042.19
2022-10-03T08:25:02.971Z,93054.41
2022-10-03T08:26:50.087Z,93057.91
2022-10-03T08:28:43.547Z,93063.00
2022-10-03T08:30:25.677Z,93061.41
2022-10-03T08:32:06.413Z,93060.59
2022-10-03T08:33:42.167Z,93057.59
2022-10-03T08:35:16.738Z,93060.13
2022-10-03T08:36:51.154Z,93050.94
2022-10-03T08:38:38.105Z,93052.19
2022-10-03T08:40:11.291Z,93048.38
2022-10-03T08:41:58.197Z,93051.06
2022-10-03T08:43:30.134Z,93046.16
2022-10-03T08:45:27.816Z,93050.94
2022-10-03T08:47:02.688Z,93051.56
2022-10-03T08:48:41.213Z,93053.00
2022-10-03T08:50:31.686Z,93060.91
2022-10-03T08:52:18.440Z,93058.38
2022-10-03T08:53:55.994Z,93056.50
2022-10-03T08:55:46.241Z,93058.38
2022-10-03T08:57:23.952Z,93050.59
2022-10-03T08:58:58.514Z,93047.56
2022-10-03T09:00:52.903Z,93049.81
2022-10-03T09:02:24.641Z,93047.59
2022-10-03T09:03:56.394Z,93041.06
2022-10-03T09:05:46.462Z,93037.88
2022-10-03T09:07:27.701Z,93038.66
2022-10-03T09:09:18.363Z,93036.91
2022-10-03T09:10:55.812Z,93037.84
2022-10-03T09:12:33.353Z,93044.97
2022-10-03T09:14:11.818Z,93048.22
2022-10-03T09:15:53.675Z,93051.03
2022-10-03T09:17:43.640Z,93054.78
2022-10-03T09:19:24.510Z,93044.22
2022-10-03T09:21:15.828Z,93040.78
2022-10-03T09:22:50.317Z,93040.78
2022-10-03T09:24:41.741Z,93046.16
2022-10-03T09:26:18.452Z,93048.00
2022-10-03T09:28:08.998Z,93049.72
2022-10-03T09:29:52.595Z,93049.41
2022-10-03T09:31:39.200Z,93057.19
2022-10-03T09:33:26.974Z,93056.41
2022-10-03T09:35:17.967Z,93056.84
2022-10-03T09:37:05.161Z,93051.44
2022-10-03T09:38:49.000Z,93054.28
2022-10-03T09:40:21.123Z,93056.00
2022-10-03T09:42:01.915Z,93048.78
2022-10-03T09:43:36.677Z,93057.84
2022-10-03T09:45:24.448Z,93058.78
2022-10-03T09:47:23.951Z,93061.28
2022-10-03T09:49:02.283Z,93059.97
2022-10-03T09:50:35.403Z,93057.38
2022-10-03T09:52:13.063Z,93051.63
2022-10-03T09:53:53.589Z,93054.81
2022-10-03T09:55:34.372Z,93041.06
2022-10-03T09:57:06.107Z,93039.72
2022-10-03T09:58:56.710Z,93049.22
2022-10-03T10:00:55.467Z,93037.63
2022-10-03T10:02:27.564Z,93043.78
2022-10-03T10:04:28.322Z,93036.25
2022-10-03T10:06:12.158Z,93033.53
2022-10-03T10:08:02.860Z,93031.75
2022-10-03T10:09:53.512Z,93032.91
2022-10-03T10:11:31.724Z,93035.84
2022-10-03T10:13:12.602Z,93035.97
2022-10-03T10:14:53.760Z,93037.78
2022-10-03T10:16:31.525Z,93041.09
2022-10-03T10:18:22.302Z,93039.06
2022-10-03T10:19:56.400Z,93044.47
2022-10-03T10:21:28.280Z,93041.91
2022-10-03T10:23:10.829Z,93040.41
2022-10-03T10:24:47.374Z,93046.75
2022-10-03T10:26:31.064Z,93039.16
2022-10-03T10:28:06.386Z,93043.25
2022-10-03T10:29:48.463Z,93049.59
2022-10-03T10:31:32.772Z,93054.31
2022-10-03T10:33:19.680Z,93050.25
2022-10-03T10:35:10.468Z,93049.69
2022-10-03T10:36:42.520Z,93056.81
2022-10-03T10:38:20.142Z,93051.16
2022-10-03T10:39:53.195Z,93052.53
2022-10-03T10:41:43.800Z,93060.22
2022-10-03T10:43:24.827Z,93060.31
2022-10-03T10:44:59.395Z,93060.78
2022-10-03T10:46:33.979Z,93071.88
2022-10-03T10:48:09.477Z,93062.28
2022-10-03T10:49:50.427Z,93062.28
2022-10-03T10:51:45.392Z,93067.00
2022-10-03T10:53:38.298Z,93054.91
2022-10-03T10:55:13.677Z,93056.91
2022-10-03T10:56:48.237Z,93056.47
2022-10-03T10:58:48.839Z,93059.75
2022-10-03T11:00:34.573Z,93057.94
2022-10-03T11:02:25.080Z,93060.28
2022-10-03T11:04:16.092Z,93055.66
2022-10-03T11:06:06.991Z,93061.78
2022-10-03T11:07:54.150Z,93064.03
2022-10-03T11:09:36.168Z,93057.38
2022-10-03T11:11:10.896Z,93062.13
2022-10-03T11:12:59.334Z,93058.03
2022-10-03T11:14:37.484Z,93066.19
2022-10-03T11:16:27.650Z,93062.31
2022-10-03T11:18:05.154Z,93064.38
2022-10-03T11:19:46.240Z,93061.75
2022-10-03T11:21:24.928Z,93059.06
2022-10-03T11:23:15.458Z,93069.13
2022-10-03T11:25:13.107Z,93066.50
2022-10-03T11:26:55.662Z,93061.63
2022-10-03T11:28:45.991Z,93058.56
2022-10-03T11:30:20.818Z,93062.41
2022-10-03T11:32:13.363Z,93067.72
2022-10-03T11:34:04.983Z,93064.09
2022-10-03T11:35:57.602Z,93055.53
2022-10-03T11:37:40.949Z,93066.75
2022-10-03T11:39:17.730Z,93066.41
2022-10-03T11:41:00.022Z,93069.66
2022-10-03T11:42:33.975Z,93068.88
2022-10-03T11:44:10.767Z,93064.09
2022-10-03T11:45:47.875Z,93064.81
2022-10-03T11:47:36.228Z,93063.91
2022-10-03T11:49:11.906Z,93059.19
2022-10-03T11:50:47.118Z,93060.56
2022-10-03T11:52:39.523Z,93060.41
2022-10-03T11:54:31.864Z,93060.53
2022-10-03T11:56:11.102Z,93054.56
2022-10-03T11:57:44.737Z,93056.47
2022-10-03T11:59:32.625Z,93047.66
2022-10-03T12:01:08.737Z,93054.56
2022-10-03T12:02:48.663Z,93044.50
2022-10-03T12:04:29.400Z,93050.72
2022-10-03T12:06:24.517Z,93048.47
2022-10-03T12:08:19.880Z,93054.78
2022-10-03T12:10:04.572Z,93059.19
2022-10-03T12:11:38.816Z,93062.00
2022-10-03T12:13:18.213Z,93057.28
2022-10-03T12:14:50.508Z,93056.47
2022-10-03T12:16:29.411Z,93052.63
2022-10-03T12:18:35.631Z,93054.56
2022-10-03T12:20:18.481Z,93060.66
2022-10-03T12:22:12.022Z,93050.25
2022-10-03T12:23:44.907Z,93055.81
2022-10-03T12:25:18.978Z,93053.75
2022-10-03T12:27:03.960Z,93059.19
2022-10-03T12:28:46.033Z,93056.13
2022-10-03T12:30:18.869Z,93051.84
2022-10-03T12:32:00.686Z,93059.53
2022-10-03T12:33:46.479Z,93058.94
2022-10-03T12:35:30.698Z,93056.16
2022-10-03T12:37:12.553Z,93060.53
2022-10-03T12:38:51.285Z,93053.66
2022-10-03T12:40:24.878Z,93057.03
2022-10-03T12:41:57.434Z,93053.31
2022-10-03T12:43:48.795Z,93049.22
2022-10-03T12:45:41.450Z,93050.13
2022-10-03T12:47:54.209Z,93058.06
2022-10-03T12:49:24.922Z,93046.78
2022-10-03T12:51:05.664Z,93054.91
2022-10-03T12:52:45.695Z,93051.81
2022-10-03T12:54:36.160Z,93057.31
2022-10-03T12:56:21.080Z,93045.28
2022-10-03T12:57:54.891Z,93059.63
2022-10-03T12:59:43.579Z,93047.66
2022-10-03T13:01:21.279Z,93049.94
2022-10-03T13:02:59.650Z,93045.84
2022-10-03T13:04:35.478Z,93049.22
2022-10-03T13:06:12.253Z,93050.06
2022-10-03T13:07:45.331Z,93056.16
2022-10-03T13:09:21.248Z,93047.44
2022-10-03T13:10:57.445Z,93041.09
2022-10-03T13:12:52.581Z,93050.59
2022-10-03T13:14:43.958Z,93049.50
2022-10-03T13:16:24.676Z,93036.97
2022-10-03T13:18:13.219Z,93047.09
2022-10-03T13:19:52.171Z,93046.34
2022-10-03T13:21:46.888Z,93041.09
2022-10-03T13:23:23.849Z,93050.63
2022-10-03T13:24:59.123Z,93051.69
2022-10-03T13:26:50.718Z,93059.16
2022-10-03T13:28:47.019Z,93048.84
2022-10-03T13:30:22.348Z,93051.16
2022-10-03T13:32:12.957Z,93048.00
2022-10-03T13:33:49.823Z,93049.34
2022-10-03T13:35:41.016Z,93054.00
2022-10-03T13:37:15.570Z,93042.81
2022-10-03T13:38:52.528Z,93047.13
2022-10-03T13:40:24.635Z,93046.66
2022-10-03T13:42:00.438Z,93051.50
2022-10-03T13:43:36.047Z,93051.16
2022-10-03T13:45:27.586Z,93042.69
2022-10-03T13:47:03.512Z,93049.84
2022-10-03T13:48:35.239Z,93054.09
2022-10-03T13:50:11.022Z,93046.28
2022-10-03T13:51:46.194Z,93046.28
2022-10-03T13:53:20.767Z,93043.56
2022-10-03T13:55:01.723Z,93047.47
2022-10-03T13:56:36.671Z,93051.28
2022-10-03T13:58:18.430Z,93052.56
2022-10-03T13:59:59.843Z,93059.16
2022-10-03T14:01:37.754Z,93052.91
2022-10-03T14:03:13.953Z,93064.09
2022-10-03T14:04:54.733Z,93057.44
2022-10-03T14:06:32.880Z,93055.13
2022-10-03T14:08:27.125Z,93053.25
2022-10-03T14:10:01.925Z,93059.59
2022-10-03T14:11:50.267Z,93059.59
2022-10-03T14:13:40.332Z,93053.56
2022-10-03T14:15:16.154Z,93050.16
2022-10-03T14:16:50.265Z,93053.06
2022-10-03T14:18:40.194Z,93056.75
2022-10-03T14:20:19.541Z,93055.91
2022-10-03T14:21:58.025Z,93047.28
2022-10-03T14:23:35.073Z,93055.19
2022-10-03T14:25:09.554Z,93043.34
2022-10-03T14:26:49.988Z,93050.06
2022-10-03T14:28:27.476Z,93048.41
2022-10-03T14:30:18.500Z,93051.84
2022-10-03T14:31:58.696Z,93044.03
2022-10-03T14:33:42.316Z,93045.59
2022-10-03T14:35:27.832Z,93047.28
2022-10-03T14:37:03.252Z,93046.16
2022-10-03T14:39:02.027Z,93048.78
2022-10-03T14:41:08.915Z,93052.47
2022-10-03T14:42:43.924Z,93057.69
2022-10-03T14:44:19.750Z,93055.06
2022-10-03T14:45:52.691Z,93055.50
2022-10-03T14:47:24.870Z,93054.50
2022-10-03T14:48:58.970Z,93053.53
2022-10-03T14:50:31.357Z,93056.06
2022-10-03T14:52:13.067Z,93052.88
2022-10-03T14:53:48.345Z,93050.63
2022-10-03T14:55:30.113Z,93051.56
2022-10-03T14:57:13.517Z,93065.75
2022-10-03T14:58:47.879Z,93070.19
2022-10-03T15:00:39.053Z,93065.25
2022-10-03T15:02:27.560Z,93070.00
2022-10-03T15:04:02.770Z,93071.59
2022-10-03T15:05:35.228Z,93066.66
2022-10-03T15:07:08.679Z,93075.84
2022-10-03T15:08:43.024Z,93070.03
2022-10-03T15:10:15.752Z,93075.72
2022-10-03T15:12:13.546Z,93073.22
2022-10-03T15:13:50.978Z,93077.75
2022-10-03T15:15:27.298Z,93075.59
2022-10-03T15:16:59.656Z,93080.44
2022-10-03T15:18:31.619Z,93085.28
2022-10-03T15:20:03.641Z,93082.50
2022-10-03T15:21:35.725Z,93088.59
2022-10-03T15:23:08.622Z,93086.41
2022-10-03T15:24:40.632Z,93091.28
2022-10-03T15:26:14.046Z,93091.97
2022-10-03T15:27:47.059Z,93091.41
2022-10-03T15:29:18.754Z,93092.41
2022-10-03T15:30:51.829Z,93093.06
2022-10-03T15:32:43.816Z,93091.38
2022-10-03T15:34:22.206Z,93085.03
2022-10-03T15:35:55.496Z,93097.69
2022-10-03T15:37:29.599Z,93095.66
2022-10-03T15:39:02.448Z,93098.22
2022-10-03T15:40:35.029Z,93099.69
2022-10-03T15:42:09.894Z,93100.72
2022-10-03T15:44:05.154Z,93099.31
2022-10-03T15:45:36.850Z,93103.59
2022-10-03T15:47:09.669Z,93099.69
2022-10-03T15:48:44.201Z,93105.19
2022-10-03T15:50:22.289Z,93110.03
2022-10-03T15:51:54.777Z,93114.50
2022-10-03T15:53:42.423Z,93104.31
2022-10-03T15:55:24.437Z,93105.44
2022-10-03T15:56:57.240Z,93113.78
2022-10-03T15:58:28.913Z,93112.06
2022-10-03T16:00:03.359Z,93125.03
2022-10-03T16:01:38.080Z,93121.72
2022-10-03T16:03:12.402Z,93126.19
2022-10-03T16:04:44.499Z,93127.53
2022-10-03T16:06:40.148Z,93123.06
2022-10-03T16:08:14.542Z,93127.59
2022-10-03T16:09:46.567Z,93126.66
2022-10-03T16:11:22.650Z,93134.28
2022-10-03T16:12:57.134Z,93132.25
2022-10-03T16:14:30.320Z,93138.78
2022-10-03T16:16:13.148Z,93134.69
2022-10-03T16:17:52.758Z,93129.00
2022-10-03T16:19:31.910Z,93136.31
2022-10-03T16:21:03.968Z,93140.47
2022-10-03T16:22:43.960Z,93137.28
2022-10-03T16:24:22.739Z,93139.25
2022-10-03T16:25:59.146Z,93140.56
2022-10-03T16:27:32.202Z,93141.22
2022-10-03T16:29:36.361Z,93149.81
2022-10-03T16:31:14.465Z,93146.03
2022-10-03T16:32:51.037Z,93153.53
2022-10-03T16:34:23.051Z,93156.25
2022-10-03T16:35:55.102Z,93159.47
2022-10-03T16:37:27.407Z,93158.22
2022-10-03T16:39:00.277Z,93165.56
2022-10-03T16:40:31.843Z,93169.84
2022-10-03T16:42:13.600Z,93170.03
2022-10-03T16:43:55.042Z,93168.75
2022-10-03T16:45:41.062Z,93168.44
2022-10-03T16:47:12.713Z,93172.09
2022-10-03T16:49:02.880Z,93174.63
2022-10-03T16:50:38.775Z,93171.13
2022-10-03T16:52:11.228Z,93168.44
2022-10-03T16:53:43.231Z,93165.72
2022-10-03T16:55:14.998Z,93177.31
2022-10-03T16:56:48.490Z,93177.81
2022-10-03T16:58:26.246Z,93167.81
2022-10-03T16:59:57.838Z,93168.59
2022-10-03T17:01:29.543Z,93171.94
2022-10-03T17:03:06.826Z,93171.13
2022-10-03T17:04:42.394Z,93170.19
2022-10-03T17:06:16.364Z,93171.94
2022-10-03T17:07:48.887Z,93175.75
2022-10-03T17:09:39.362Z,93173.38
2022-10-03T17:11:13.390Z,93176.38
2022-10-03T17:12:46.425Z,93174.19
2022-10-03T17:14:18.186Z,93178.59
2022-10-03T17:16:12.868Z,93174.78
2022-10-03T17:18:00.290Z,93174.78
2022-10-03T17:19:40.200Z,93180.97
2022-10-03T17:21:20.953Z,93166.06
2022-10-03T17:22:53.497Z,93172.38
2022-10-03T17:24:33.342Z,93175.41
2022-10-03T17:26:11.241Z,93181.28
2022-10-03T17:27:43.502Z,93179.38
2022-10-03T17:29:15.338Z,93176.38
2022-10-03T17:30:46.928Z,93174.47
2022-10-03T17:32:23.567Z,93177.16
2022-10-03T17:33:58.446Z,93177.66
2022-10-03T17:35:31.778Z,93175.41
2022-10-03T17:37:12.577Z,93179.69
2022-10-03T17:38:50.530Z,93176.53
2022-10-03T17:40:23.443Z,93178.59
2022-10-03T17:42:13.642Z,93178.78
2022-10-03T17:43:46.656Z,93182.56
2022-10-03T17:45:33.845Z,93182.56
2022-10-03T17:47:05.504Z,93189.56
2022-10-03T17:48:41.519Z,93182.28
2022-10-03T17:50:15.864Z,93173.06
2022-10-03T17:51:49.213Z,93185.16
2022-10-03T17:53:21.865Z,93175.94
2022-10-03T17:55:03.404Z,93179.25
2022-10-03T17:56:34.976Z,93178.78
2022-10-03T17:58:08.140Z,93174.28
2022-10-03T17:59:47.989Z,93174.16
2022-10-03T18:01:20.723Z,93187.47
2022-10-03T18:02:55.248Z,93178.91
2022-10-03T18:04:36.982Z,93188.75
2022-10-03T18:06:20.952Z,93187.78
2022-10-03T18:07:54.948Z,93185.72
2022-10-03T18:09:30.718Z,93185.88
2022-10-03T18:11:03.329Z,93183.81
2022-10-03T18:12:42.587Z,93185.53
2022-10-03T18:14:15.195Z,93181.25
2022-10-03T18:15:47.222Z,93184.41
2022-10-03T18:17:20.779Z,93190.44
2022-10-03T18:19:28.443Z,93189.50
2022-10-03T18:21:05.774Z,93192.00
2022-10-03T18:22:40.875Z,93185.94
2022-10-03T18:24:13.068Z,93192.00
2022-10-03T18:26:20.456Z,93196.59
2022-10-03T18:28:08.581Z,93192.44
2022-10-03T18:30:13.196Z,93183.84
2022-10-03T18:31:46.304Z,93196.22
2022-10-03T18:33:20.557Z,93197.81
2022-10-03T18:35:13.132Z,93191.47
2022-10-03T18:36:47.919Z,93198.28
2022-10-03T18:38:24.633Z,93195.28
2022-10-03T18:39:57.674Z,93194.78
2022-10-03T18:41:30.692Z,93204.31
2022-10-03T18:43:02.621Z,93198.72
2022-10-03T18:44:35.373Z,93203.16
2022-10-03T18:46:15.243Z,93208.72
2022-10-03T18:48:00.004Z,93203.31
2022-10-03T18:49:34.285Z,93204.47
2022-10-03T18:51:11.187Z,93213.66
2022-10-03T18:53:01.339Z,93201.56
2022-10-03T18:54:42.404Z,93215.53
2022-10-03T18:56:18.996Z,93217.94
2022-10-03T18:57:55.420Z,93213.31
2022-10-03T18:59:48.461Z,93217.13
2022-10-03T19:01:26.315Z,93218.41
2022-10-03T19:03:01.084Z,93221.09
2022-10-03T19:04:35.290Z,93218.09
2022-10-03T19:06:08.715Z,93220.47
2022-10-03T19:07:44.553Z,93233.66
2022-10-03T19:09:25.195Z,93222.88
2022-10-03T19:11:00.991Z,93231.56
2022-10-03T19:12:35.260Z,93227.28
2022-10-03T19:14:06.857Z,93233.78
2022-10-03T19:15:39.022Z,93228.38
2022-10-03T19:17:21.420Z,93232.69
2022-10-03T19:18:52.931Z,93231.28
2022-10-03T19:20:28.059Z,93228.56
2022-10-03T19:22:06.268Z,93229.25
2022-10-03T19:23:41.464Z,93229.88
2022-10-03T19:25:18.909Z,93221.19
2022-10-03T19:26:54.555Z,93223.38
2022-10-03T19:28:29.028Z,93236.03
2022-10-03T19:30:00.790Z,93231.09
2022-10-03T19:31:33.044Z,93226.34
2022-10-03T19:33:10.004Z,93231.22
2022-10-03T19:34:43.485Z,93225.66
2022-10-03T19:36:26.355Z,93232.16
2022-10-03T19:38:04.150Z,93231.19
2022-10-03T19:39:37.779Z,93230.41
2022-10-03T19:41:09.604Z,93235.31
2022-10-03T19:42:46.092Z,93237.22
2022-10-03T19:44:20.205Z,93235.63
2022-10-03T19:45:59.698Z,93240.22
2022-10-03T19:47:32.394Z,93239.22
2022-10-03T19:49:10.695Z,93241.75
2022-10-03T19:50:43.637Z,93234.59
2022-10-03T19:52:17.638Z,93237.91
2022-10-03T19:53:49.924Z,93240.44
2022-10-03T19:55:31.109Z,93242.81